createdAt,value
2022-11-12T00:00:56.926Z,62.95
2022-11-12T00:03:23.478Z,62.97
2022-11-12T00:05:50.806Z,66.47
2022-11-12T00:08:18.171Z,65.72
2022-11-12T00:10:45.300Z,65.97
2022-11-12T00:13:12.517Z,69.10
2022-11-12T00:15:39.655Z,68.78
2022-11-12T00:18:07.890Z,71.82
2022-11-12T00:20:35.139Z,73.32
2022-11-12T00:23:01.895Z,74.72
2022-11-12T00:25:28.711Z,86.28
2022-11-12T00:28:01.384Z,80.32
2022-11-12T00:30:27.857Z,83.90
2022-11-12T00:32:54.385Z,86.50
2022-11-12T00:35:20.875Z,92.53
2022-11-12T00:37:47.382Z,91.70
2022-11-12T00:40:13.898Z,104.15
2022-11-12T00:42:40.355Z,100.35
2022-11-12T00:45:07.302Z,101.60
2022-11-12T00:47:33.777Z,103.38
2022-11-12T00:50:00.288Z,110.68
2022-11-12T00:52:26.841Z,112.18
2022-11-12T00:54:53.339Z,105.40
2022-11-12T00:57:19.816Z,106.47
2022-11-12T00:59:46.339Z,104.15
2022-11-12T01:02:12.871Z,106.45
2022-11-12T01:04:39.528Z,102.60
2022-11-12T01:07:06.110Z,98.47
2022-11-12T01:09:32.710Z,98.68
2022-11-12T01:11:59.248Z,98.28
2022-11-12T01:14:25.822Z,95.20
2022-11-12T01:16:52.341Z,94.95
2022-11-12T01:19:18.897Z,95.28
2022-11-12T01:21:45.395Z,92.53
2022-11-12T01:24:12.043Z,90.88
2022-11-12T01:26:39.109Z,93.68
2022-11-12T01:29:06.045Z,92.03
2022-11-12T01:31:38.243Z,91.22
2022-11-12T01:34:07.159Z,89.00
2022-11-12T01:36:37.228Z,88.13
2022-11-12T01:39:05.729Z,86.70
2022-11-12T01:41:35.093Z,86.68
2022-11-12T01:44:07.347Z,88.85
2022-11-12T01:46:37.262Z,92.03
2022-11-12T01:49:08.976Z,94.90
2022-11-12T01:51:40.031Z,93.10
2022-11-12T01:54:10.488Z,90.35
2022-11-12T01:56:40.569Z,90.40
2022-11-12T01:59:16.940Z,92.43
2022-11-12T02:01:43.465Z,96.90
2022-11-12T02:04:09.978Z,98.00
2022-11-12T02:06:37.649Z,107.07
2022-11-12T02:09:05.115Z,101.05
2022-11-12T02:11:31.624Z,108.80
2022-11-12T02:13:58.305Z,103.65
2022-11-12T02:16:29.111Z,108.03
2022-11-12T02:18:55.618Z,97.28
2022-11-12T02:21:23.590Z,99.03
2022-11-12T02:24:01.847Z,98.30
2022-11-12T02:26:33.260Z,93.20
2022-11-12T02:29:00.136Z,94.78
2022-11-12T02:31:27.074Z,100.82
2022-11-12T02:33:53.623Z,105.88
2022-11-12T02:36:20.958Z,107.20
2022-11-12T02:38:47.505Z,105.05
2022-11-12T02:41:14.421Z,105.68
2022-11-12T02:43:41.307Z,105.88
2022-11-12T02:46:08.159Z,103.82
2022-11-12T02:48:34.697Z,102.25
2022-11-12T02:51:01.176Z,103.10
2022-11-12T02:53:27.704Z,100.35
2022-11-12T02:55:54.198Z,99.40
2022-11-12T02:58:22.702Z,99.95
2022-11-12T03:00:49.590Z,97.30
2022-11-12T03:03:16.361Z,95.18
2022-11-12T03:05:43.384Z,94.00
2022-11-12T03:08:10.093Z,94.22
2022-11-12T03:10:38.921Z,93.47
2022-11-12T03:13:06.609Z,91.45
2022-11-12T03:15:33.129Z,92.57
2022-11-12T03:18:00.252Z,95.82
2022-11-12T03:20:27.567Z,92.93
2022-11-12T03:22:57.182Z,91.07
2022-11-12T03:25:24.384Z,88.38
2022-11-12T03:28:00.757Z,90.57
2022-11-12T03:30:28.547Z,85.80
2022-11-12T03:32:55.198Z,88.18
2022-11-12T03:35:22.160Z,93.18
2022-11-12T03:37:48.656Z,90.63
2022-11-12T03:40:15.737Z,95.97
2022-11-12T03:42:47.761Z,98.68
2022-11-12T03:45:18.270Z,96.65
2022-11-12T03:47:50.248Z,101.85
2022-11-12T03:50:18.049Z,105.18
2022-11-12T03:52:46.339Z,99.78
2022-11-12T03:55:14.510Z,96.47
2022-11-12T03:57:41.694Z,94.50
2022-11-12T04:00:10.626Z,91.18
2022-11-12T04:02:37.779Z,83.32
2022-11-12T04:05:24.768Z,84.00
2022-11-12T04:08:24.421Z,76.50
2022-11-12T04:10:51.991Z,67.47
2022-11-12T04:13:30.431Z,67.80
2022-11-12T04:16:20.504Z,70.10
2022-11-12T04:19:08.765Z,64.82
2022-11-12T04:21:51.092Z,62.47
2022-11-12T04:24:37.228Z,60.63
2022-11-12T04:27:04.770Z,59.08
2022-11-12T04:29:50.423Z,62.10
2022-11-12T04:32:17.181Z,61.15
2022-11-12T04:34:43.777Z,61.47
2022-11-12T04:37:10.395Z,59.38
2022-11-12T04:39:36.929Z,63.28
2022-11-12T04:42:22.556Z,60.58
2022-11-12T04:45:02.529Z,60.58
2022-11-12T04:47:38.196Z,60.10
2022-11-12T04:50:08.797Z,57.70
2022-11-12T04:52:35.290Z,59.53
2022-11-12T04:55:01.953Z,59.28
2022-11-12T04:57:28.472Z,60.60
2022-11-12T04:59:54.974Z,58.58
2022-11-12T05:02:21.849Z,56.22
2022-11-12T05:04:48.552Z,55.67
2022-11-12T05:07:15.860Z,55.90
2022-11-12T05:09:42.740Z,53.97
2022-11-12T05:12:09.620Z,53.17
2022-11-12T05:14:36.212Z,51.47
2022-11-12T05:17:02.837Z,50.00
2022-11-12T05:19:29.406Z,50.08
2022-11-12T05:22:17.461Z,51.20
2022-11-12T05:24:45.241Z,47.20
2022-11-12T05:27:15.326Z,46.78
2022-11-12T05:29:42.517Z,45.30
2022-11-12T05:32:11.794Z,45.38
2022-11-12T05:34:38.370Z,44.38
2022-11-12T05:37:06.821Z,44.85
2022-11-12T05:39:33.383Z,45.80
2022-11-12T05:42:15.316Z,44.90
2022-11-12T05:44:42.155Z,43.30
2022-11-12T05:47:08.670Z,44.47
2022-11-12T05:49:35.180Z,44.35
2022-11-12T05:52:01.645Z,45.28
2022-11-12T05:54:28.145Z,48.55
2022-11-12T05:56:54.648Z,47.45
2022-11-12T05:59:22.226Z,52.65
2022-11-12T06:01:48.776Z,49.30
2022-11-12T06:04:15.998Z,52.35
2022-11-12T06:06:43.334Z,55.42
2022-11-12T06:09:10.832Z,55.72
2022-11-12T06:11:37.844Z,57.47
2022-11-12T06:14:05.036Z,57.22
2022-11-12T06:16:32.994Z,55.03
2022-11-12T06:18:59.888Z,57.15
2022-11-12T06:21:27.875Z,59.33
2022-11-12T06:23:59.266Z,58.45
2022-11-12T06:26:27.955Z,59.72
2022-11-12T06:28:54.979Z,60.95
2022-11-12T06:31:22.024Z,61.75
2022-11-12T06:33:49.337Z,61.80
2022-11-12T06:36:18.844Z,61.90
2022-11-12T06:38:45.714Z,65.28
2022-11-12T06:41:13.238Z,65.68
2022-11-12T06:43:40.527Z,62.75
2022-11-12T06:46:11.208Z,62.92
2022-11-12T06:48:37.932Z,61.00
2022-11-12T06:51:17.053Z,61.50
2022-11-12T06:53:44.154Z,60.95
2022-11-12T06:56:13.821Z,60.92
2022-11-12T06:58:40.768Z,58.03
2022-11-12T07:01:12.063Z,58.70
2022-11-12T07:03:40.485Z,59.97
2022-11-12T07:06:12.224Z,62.55
2022-11-12T07:08:39.713Z,67.93
2022-11-12T07:11:07.661Z,74.10
2022-11-12T07:13:35.914Z,82.20
2022-11-12T07:16:02.935Z,94.60
2022-11-12T07:18:30.521Z,109.57
2022-11-12T07:21:01.775Z,121.07
2022-11-12T07:23:30.026Z,137.25
2022-11-12T07:26:02.479Z,139.43
2022-11-12T07:28:29.752Z,156.30
2022-11-12T07:31:04.906Z,159.02
2022-11-12T07:33:32.231Z,168.02
2022-11-12T07:36:01.124Z,183.25
2022-11-12T07:38:29.586Z,204.02
2022-11-12T07:41:08.548Z,214.05
2022-11-12T07:43:36.956Z,220.23
2022-11-12T07:46:10.884Z,230.15
2022-11-12T07:48:38.277Z,257.13
2022-11-12T07:51:08.446Z,294.73
2022-11-12T07:53:34.946Z,319.45
2022-11-12T07:56:04.533Z,324.15
2022-11-12T07:58:32.688Z,317.92
2022-11-12T08:01:08.423Z,275.85
2022-11-12T08:03:35.259Z,258.60
2022-11-12T08:06:02.091Z,245.80
2022-11-12T08:08:28.939Z,238.20
2022-11-12T08:10:59.773Z,224.63
2022-11-12T08:13:26.307Z,184.30
2022-11-12T08:15:52.843Z,178.65
2022-11-12T08:18:19.494Z,147.90
2022-11-12T08:20:45.964Z,125.75
2022-11-12T08:23:12.458Z,111.75
2022-11-12T08:25:38.944Z,112.05
2022-11-12T08:28:05.573Z,126.82
2022-11-12T08:30:32.143Z,138.35
2022-11-12T08:33:02.382Z,168.25
2022-11-12T08:35:30.324Z,192.00
2022-11-12T08:38:06.653Z,186.40
2022-11-12T08:40:34.065Z,204.13
2022-11-12T08:43:08.865Z,216.98
2022-11-12T08:45:38.273Z,211.52
2022-11-12T08:48:10.087Z,213.23
2022-11-12T08:50:37.056Z,165.13
2022-11-12T08:53:05.900Z,150.95
2022-11-12T08:55:35.966Z,111.32
2022-11-12T08:58:03.757Z,91.00
2022-11-12T09:00:50.870Z,77.32
2022-11-12T09:03:19.698Z,75.75
2022-11-12T09:05:46.299Z,67.45
2022-11-12T09:08:19.050Z,62.53
2022-11-12T09:10:46.750Z,63.55
2022-11-12T09:13:16.319Z,57.00
2022-11-12T09:15:43.079Z,57.28
2022-11-12T09:18:17.486Z,50.80
2022-11-12T09:20:44.606Z,50.58
2022-11-12T09:23:13.848Z,50.13
2022-11-12T09:25:41.443Z,50.67
2022-11-12T09:28:18.897Z,52.03
2022-11-12T09:30:48.456Z,56.35
2022-11-12T09:33:19.638Z,52.53
2022-11-12T09:35:47.470Z,54.97
2022-11-12T09:38:15.355Z,53.95
2022-11-12T09:40:51.075Z,53.83
2022-11-12T09:43:43.305Z,51.13
2022-11-12T09:46:45.153Z,53.88
2022-11-12T09:49:17.843Z,52.33
2022-11-12T09:51:53.852Z,49.08
2022-11-12T09:54:30.230Z,47.42
2022-11-12T09:56:56.918Z,47.33
2022-11-12T09:59:28.790Z,50.58
2022-11-12T10:02:31.882Z,51.85
2022-11-12T10:05:16.538Z,50.03
2022-11-12T10:08:00.590Z,50.50
2022-11-12T10:10:49.966Z,57.22
2022-11-12T10:13:42.321Z,51.90
2022-11-12T10:16:42.468Z,46.35
2022-11-12T10:19:26.933Z,45.00
2022-11-12T10:22:16.391Z,53.92
2022-11-12T10:24:44.685Z,65.05
2022-11-12T10:27:16.154Z,59.78
2022-11-12T10:30:00.673Z,34.63
2022-11-12T10:34:53.652Z,38.30
2022-11-12T10:37:26.173Z,39.17
2022-11-12T10:39:53.226Z,31.25
2022-11-12T10:42:22.095Z,26.38
2022-11-12T10:44:48.981Z,27.77
2022-11-12T10:47:33.342Z,27.67
2022-11-12T10:52:26.173Z,26.98
2022-11-12T10:55:15.766Z,25.05
2022-11-12T10:57:42.294Z,23.58
2022-11-12T11:00:18.176Z,26.15
2022-11-12T11:02:53.171Z,26.80
2022-11-12T11:05:31.527Z,25.98
2022-11-12T11:07:58.176Z,27.60
2022-11-12T11:10:27.946Z,27.42
2022-11-12T11:13:09.817Z,25.55
2022-11-12T11:15:37.835Z,27.48
2022-11-12T11:18:06.660Z,30.15
2022-11-12T11:20:46.295Z,28.42
2022-11-12T11:23:48.193Z,32.15
2022-11-12T11:26:36.907Z,31.13
2022-11-12T11:29:21.881Z,30.15
2022-11-12T11:32:17.439Z,28.08
2022-11-12T11:34:52.880Z,29.60
2022-11-12T11:37:37.045Z,29.38
2022-11-12T11:42:58.091Z,29.58
2022-11-12T11:45:56.784Z,28.80
2022-11-12T11:48:34.902Z,28.38
2022-11-12T11:51:24.816Z,28.88
2022-11-12T11:54:09.213Z,27.10
2022-11-12T11:56:42.690Z,26.27
2022-11-12T11:59:21.201Z,27.73
2022-11-12T12:02:06.550Z,24.73
2022-11-12T12:04:38.935Z,24.00
2022-11-12T12:07:30.314Z,25.45
2022-11-12T12:10:12.102Z,25.02
2022-11-12T12:12:47.384Z,24.45
2022-11-12T12:15:35.185Z,23.15
2022-11-12T12:18:20.045Z,24.50
2022-11-12T12:21:08.394Z,24.52
2022-11-12T12:23:48.633Z,27.67
2022-11-12T12:26:22.024Z,27.95
2022-11-12T12:28:53.837Z,27.50
2022-11-12T12:31:27.292Z,27.75
2022-11-12T12:33:58.866Z,28.40
2022-11-12T12:36:38.769Z,29.35
2022-11-12T12:39:19.116Z,29.83
2022-11-12T12:41:56.985Z,29.25
2022-11-12T12:44:44.634Z,28.42
2022-11-12T12:47:14.158Z,27.35
2022-11-12T12:49:41.975Z,25.65
2022-11-12T12:52:12.778Z,24.33
2022-11-12T12:54:54.768Z,26.92
2022-11-12T12:57:31.495Z,24.20
2022-11-12T13:00:35.283Z,25.58
2022-11-12T13:03:01.957Z,24.10
2022-11-12T13:05:34.523Z,23.02
2022-11-12T13:08:13.573Z,23.15
2022-11-12T13:10:41.273Z,23.45
2022-11-12T13:13:19.822Z,24.50
2022-11-12T13:15:54.184Z,23.38
2022-11-12T13:18:38.720Z,24.13
2022-11-12T13:24:12.739Z,21.38
2022-11-12T13:26:57.605Z,20.85
2022-11-12T13:29:48.528Z,19.90
2022-11-12T13:32:28.093Z,20.88
2022-11-12T13:35:34.782Z,20.02
2022-11-12T13:38:13.066Z,19.85
2022-11-12T13:40:58.211Z,19.88
2022-11-12T13:43:33.972Z,20.35
2022-11-12T13:46:12.206Z,18.45
2022-11-12T13:48:44.715Z,19.08
2022-11-12T13:51:39.993Z,19.48
2022-11-12T13:54:26.498Z,19.58
2022-11-12T13:56:53.145Z,18.63
2022-11-12T13:59:22.536Z,19.25
2022-11-12T14:01:50.064Z,18.30
2022-11-12T14:04:19.892Z,19.13
2022-11-12T14:06:56.393Z,19.30
2022-11-12T14:09:29.842Z,20.83
2022-11-12T14:12:21.273Z,23.57
2022-11-12T14:15:07.271Z,24.70
2022-11-12T14:17:55.564Z,24.75
2022-11-12T14:20:29.021Z,27.17
2022-11-12T14:22:55.592Z,28.37
2022-11-12T14:25:25.081Z,29.33
2022-11-12T14:27:53.689Z,30.85
2022-11-12T14:30:21.968Z,30.65
2022-11-12T14:33:02.009Z,31.23
2022-11-12T14:35:30.362Z,33.72
2022-11-12T14:38:09.129Z,36.65
2022-11-12T14:40:42.261Z,40.03
2022-11-12T14:43:26.181Z,37.80
2022-11-12T14:45:55.686Z,39.22
2022-11-12T14:48:22.521Z,39.78
2022-11-12T14:50:55.930Z,41.97
2022-11-12T14:53:28.841Z,42.53
2022-11-12T14:55:56.623Z,42.88
2022-11-12T14:58:24.719Z,46.08
2022-11-12T15:00:53.175Z,44.95
2022-11-12T15:03:32.702Z,45.28
2022-11-12T15:05:59.294Z,45.72
2022-11-12T15:08:37.650Z,47.22
2022-11-12T15:11:22.261Z,41.80
2022-11-12T15:13:50.545Z,45.58
2022-11-12T15:16:21.622Z,46.47
2022-11-12T15:19:26.708Z,47.38
2022-11-12T15:22:01.170Z,45.03
2022-11-12T15:24:33.565Z,43.40
2022-11-12T15:27:03.156Z,42.15
2022-11-12T15:29:34.696Z,44.70
2022-11-12T15:32:13.798Z,50.40
2022-11-12T15:34:40.620Z,51.60
2022-11-12T15:37:19.182Z,58.13
2022-11-12T15:39:49.361Z,69.32
2022-11-12T15:42:33.908Z,77.43
2022-11-12T15:45:02.861Z,79.47
2022-11-12T15:47:29.452Z,87.75
2022-11-12T15:49:58.850Z,98.88
2022-11-12T15:52:25.583Z,98.18
2022-11-12T15:54:52.168Z,97.75
2022-11-12T15:57:22.506Z,94.75
2022-11-12T16:00:07.443Z,91.68
2022-11-12T16:02:34.950Z,86.28
2022-11-12T16:05:01.769Z,80.68
2022-11-12T16:07:28.281Z,74.78
2022-11-12T16:09:54.864Z,72.95
2022-11-12T16:12:21.647Z,64.60
2022-11-12T16:14:48.170Z,63.72
2022-11-12T16:17:17.155Z,59.70
2022-11-12T16:19:43.728Z,56.53
2022-11-12T16:22:12.857Z,51.88
2022-11-12T16:24:42.606Z,50.95
2022-11-12T16:27:14.892Z,47.17
2022-11-12T16:29:41.645Z,41.30
2022-11-12T16:32:13.025Z,40.45
2022-11-12T16:34:39.508Z,36.33
2022-11-12T16:37:08.867Z,35.92
2022-11-12T16:39:35.390Z,34.95
2022-11-12T16:42:01.977Z,35.40
2022-11-12T16:44:28.514Z,32.75
2022-11-12T16:46:55.045Z,33.97
2022-11-12T16:49:21.570Z,34.47
2022-11-12T16:51:48.927Z,37.45
2022-11-12T16:54:15.441Z,39.28
2022-11-12T16:56:41.929Z,39.78
2022-11-12T16:59:11.975Z,39.70
2022-11-12T17:01:38.489Z,38.20
2022-11-12T17:04:05.060Z,41.63
2022-11-12T17:06:34.440Z,40.30
2022-11-12T17:09:00.951Z,39.67
2022-11-12T17:11:27.432Z,40.50
2022-11-12T17:13:53.934Z,42.53
2022-11-12T17:16:20.529Z,43.78
2022-11-12T17:18:47.052Z,45.55
2022-11-12T17:21:18.448Z,47.10
2022-11-12T17:23:45.004Z,50.63
2022-11-12T17:26:18.041Z,49.83
2022-11-12T17:28:45.473Z,52.50
2022-11-12T17:31:15.111Z,58.00
2022-11-12T17:33:49.891Z,66.45
2022-11-12T17:36:24.081Z,74.47
2022-11-12T17:38:59.153Z,82.97
2022-11-12T17:41:30.530Z,81.72
2022-11-12T17:43:59.404Z,83.15
2022-11-12T17:46:26.525Z,76.80
2022-11-12T17:48:54.849Z,80.28
2022-11-12T17:51:23.624Z,80.97
2022-11-12T17:53:50.701Z,85.85
2022-11-12T17:56:20.045Z,86.10
2022-11-12T17:58:47.301Z,86.60
2022-11-12T18:01:22.676Z,93.15
2022-11-12T18:03:50.783Z,95.70
2022-11-12T18:06:23.015Z,94.60
2022-11-12T18:08:57.670Z,96.70
2022-11-12T18:11:25.466Z,99.57
2022-11-12T18:13:53.032Z,97.47
2022-11-12T18:16:22.877Z,93.22
2022-11-12T18:18:49.772Z,92.78
2022-11-12T18:21:17.629Z,101.45
2022-11-12T18:23:44.945Z,89.22
2022-11-12T18:26:18.123Z,85.75
2022-11-12T18:28:50.143Z,81.47
2022-11-12T18:31:17.467Z,74.53
2022-11-12T18:33:43.965Z,75.93
2022-11-12T18:36:12.897Z,72.57
2022-11-12T18:38:39.462Z,77.13
2022-11-12T18:41:12.609Z,87.35
2022-11-12T18:43:40.248Z,83.05
2022-11-12T18:46:08.681Z,76.15
2022-11-12T18:48:37.335Z,82.50
2022-11-12T18:51:08.989Z,73.15
2022-11-12T18:53:36.438Z,70.55
2022-11-12T18:56:15.093Z,70.38
2022-11-12T18:58:41.882Z,69.88
2022-11-12T19:01:12.116Z,69.95
2022-11-12T19:03:38.702Z,68.10
2022-11-12T19:06:06.839Z,65.68
2022-11-12T19:08:34.077Z,64.90
2022-11-12T19:11:06.955Z,61.95
2022-11-12T19:13:33.948Z,67.78
2022-11-12T19:16:05.750Z,62.92
2022-11-12T19:18:32.838Z,59.28
2022-11-12T19:21:04.833Z,56.45
2022-11-12T19:23:31.696Z,59.72
2022-11-12T19:26:02.445Z,57.03
2022-11-12T19:28:29.705Z,56.58
2022-11-12T19:30:56.926Z,53.72
2022-11-12T19:33:23.943Z,54.92
2022-11-12T19:35:50.428Z,54.85
2022-11-12T19:38:16.893Z,53.92
2022-11-12T19:40:43.427Z,50.40
2022-11-12T19:43:10.020Z,49.10
2022-11-12T19:45:37.233Z,55.63
2022-11-12T19:48:04.451Z,66.38
2022-11-12T19:50:33.525Z,50.55
2022-11-12T19:53:00.277Z,44.80
2022-11-12T19:55:28.953Z,45.65
2022-11-12T19:57:55.585Z,45.08
2022-11-12T20:00:22.506Z,48.25
2022-11-12T20:02:49.093Z,50.83
2022-11-12T20:05:15.742Z,50.30
2022-11-12T20:07:42.257Z,51.97
2022-11-12T20:10:09.248Z,50.30
2022-11-12T20:12:36.564Z,55.05
2022-11-12T20:15:03.210Z,51.00
2022-11-12T20:17:32.400Z,46.53
2022-11-12T20:19:59.679Z,47.10
2022-11-12T20:22:31.638Z,45.88
2022-11-12T20:24:58.937Z,42.90
2022-11-12T20:27:25.726Z,48.10
2022-11-12T20:29:52.750Z,44.17
2022-11-12T20:32:20.947Z,45.17
2022-11-12T20:34:47.461Z,44.63
2022-11-12T20:37:13.973Z,43.78
2022-11-12T20:39:40.475Z,45.38
2022-11-12T20:42:07.032Z,45.97
2022-11-12T20:44:33.571Z,43.97
2022-11-12T20:47:01.449Z,42.45
2022-11-12T20:49:27.953Z,43.15
2022-11-12T20:51:54.434Z,43.25
2022-11-12T20:54:21.149Z,42.13
2022-11-12T20:56:50.569Z,41.50
2022-11-12T20:59:17.097Z,41.17
2022-11-12T21:01:43.868Z,40.95
2022-11-12T21:04:12.291Z,41.60
2022-11-12T21:06:39.135Z,42.13
2022-11-12T21:09:05.753Z,46.22
2022-11-12T21:11:32.254Z,43.58
2022-11-12T21:13:59.920Z,41.92
2022-11-12T21:16:26.666Z,44.60
2022-11-12T21:18:53.309Z,41.42
2022-11-12T21:21:21.274Z,40.63
2022-11-12T21:23:50.256Z,42.80
2022-11-12T21:26:22.089Z,44.22
2022-11-12T21:28:53.651Z,42.65
2022-11-12T21:31:28.194Z,39.75
2022-11-12T21:33:58.227Z,38.50
2022-11-12T21:36:27.793Z,40.03
2022-11-12T21:38:54.356Z,40.90
2022-11-12T21:41:23.857Z,39.00
2022-11-12T21:43:50.910Z,38.15
2022-11-12T21:46:22.895Z,39.35
2022-11-12T21:48:54.941Z,41.72
2022-11-12T21:51:33.084Z,38.90
2022-11-12T21:54:05.622Z,39.55
2022-11-12T21:56:34.200Z,41.33
2022-11-12T21:59:01.580Z,40.80
2022-11-12T22:01:30.063Z,43.78
2022-11-12T22:03:58.044Z,43.78
2022-11-12T22:06:27.426Z,45.75
2022-11-12T22:08:55.152Z,46.13
2022-11-12T22:11:22.786Z,49.10
2022-11-12T22:13:49.675Z,50.28
2022-11-12T22:16:23.449Z,51.95
2022-11-12T22:18:52.295Z,54.03
2022-11-12T22:21:24.096Z,58.78
2022-11-12T22:23:50.690Z,59.85
2022-11-12T22:26:22.801Z,63.67
2022-11-12T22:28:49.336Z,61.13
2022-11-12T22:31:21.231Z,61.75
2022-11-12T22:33:48.246Z,62.25
2022-11-12T22:36:23.111Z,68.13
2022-11-12T22:38:51.619Z,70.18
2022-11-12T22:41:26.669Z,67.22
2022-11-12T22:43:55.991Z,68.07
2022-11-12T22:46:28.225Z,73.32
2022-11-12T22:48:55.750Z,66.82
2022-11-12T22:51:25.523Z,72.45
2022-11-12T22:53:57.334Z,72.15
2022-11-12T22:56:24.988Z,77.80
2022-11-12T22:58:52.235Z,81.22
2022-11-12T23:01:27.336Z,81.43
2022-11-12T23:04:02.112Z,85.13
2022-11-12T23:08:57.689Z,72.53
2022-11-12T23:11:26.199Z,80.30
2022-11-12T23:13:54.231Z,86.55
2022-11-12T23:16:26.523Z,86.43
2022-11-12T23:18:54.904Z,88.50
2022-11-12T23:21:24.293Z,86.03
2022-11-12T23:23:51.085Z,84.32
2022-11-12T23:26:21.281Z,86.90
2022-11-12T23:28:48.209Z,86.72
2022-11-12T23:31:19.997Z,85.03
2022-11-12T23:33:48.389Z,86.18
2022-11-12T23:36:15.169Z,82.88
2022-11-12T23:38:42.851Z,80.05
2022-11-12T23:41:15.117Z,78.53
2022-11-12T23:43:41.741Z,78.25
2022-11-12T23:46:08.405Z,74.25
2022-11-12T23:48:34.919Z,74.95
2022-11-12T23:51:07.563Z,72.07
2022-11-12T23:53:35.385Z,73.75
2022-11-12T23:56:02.208Z,71.18
2022-11-12T23:58:29.332Z,68.30
